createdAt,value
2022-09-17T00:03:13.095Z,95853.84
2022-09-17T00:08:16.014Z,95860.91
2022-09-17T00:13:18.617Z,95857.81
2022-09-17T00:18:22.520Z,95866.78
2022-09-17T00:23:25.147Z,95870.56
2022-09-17T00:28:27.697Z,95877.13
2022-09-17T00:33:31.604Z,95874.81
2022-09-17T00:38:34.398Z,95878.41
2022-09-17T00:43:38.717Z,95878.06
2022-09-17T00:48:42.647Z,95880.69
2022-09-17T00:53:45.446Z,95888.84
2022-09-17T00:58:48.915Z,95891.25
2022-09-17T01:03:52.807Z,95887.16
2022-09-17T01:09:01.334Z,95878.94
2022-09-17T01:14:12.148Z,95872.38
2022-09-17T01:19:28.136Z,95869.25
2022-09-17T01:24:45.518Z,95875.28
2022-09-17T01:29:57.516Z,95876.75
2022-09-17T01:35:04.192Z,95877.59
2022-09-17T01:40:09.628Z,95880.91
2022-09-17T01:45:15.498Z,95893.00
2022-09-17T01:50:23.088Z,95892.31
2022-09-17T01:55:28.325Z,95873.34
2022-09-17T02:00:31.406Z,95894.25
2022-09-17T02:05:36.889Z,95886.91
2022-09-17T02:10:42.492Z,95884.72
2022-09-17T02:15:48.659Z,95891.03
2022-09-17T02:20:56.098Z,95896.41
2022-09-17T02:26:01.789Z,95898.38
2022-09-17T02:31:04.825Z,95897.22
2022-09-17T02:36:09.105Z,95897.41
2022-09-17T02:41:15.432Z,95899.97
2022-09-17T02:46:29.658Z,95906.13
2022-09-17T02:51:39.153Z,95910.84
2022-09-17T02:56:45.777Z,95911.97
2022-09-17T03:01:52.051Z,95913.09
2022-09-17T03:06:56.617Z,95905.09
2022-09-17T03:11:59.174Z,95907.19
2022-09-17T03:17:01.783Z,95910.06
2022-09-17T03:22:05.726Z,95904.63
2022-09-17T03:27:08.417Z,95902.81
2022-09-17T03:32:11.184Z,95926.38
2022-09-17T03:37:15.145Z,95922.72
2022-09-17T03:42:18.057Z,95919.38
2022-09-17T03:47:20.589Z,95918.34
2022-09-17T03:52:24.505Z,95926.38
2022-09-17T03:57:27.040Z,95929.47
2022-09-17T04:02:29.648Z,95946.81
2022-09-17T04:07:33.602Z,95967.09
2022-09-17T04:12:36.177Z,95964.47
2022-09-17T04:17:38.764Z,95961.56
2022-09-17T04:22:42.690Z,95950.31
2022-09-17T04:27:45.246Z,95950.91
2022-09-17T04:32:48.006Z,95961.34
2022-09-17T04:37:55.578Z,95971.56
2022-09-17T04:42:59.434Z,95985.31
2022-09-17T04:48:02.742Z,95990.44
2022-09-17T04:53:06.648Z,96002.41
2022-09-17T04:58:09.189Z,95995.47
2022-09-17T05:03:11.767Z,96014.22
2022-09-17T05:08:15.685Z,96010.81
2022-09-17T05:13:18.441Z,96021.91
2022-09-17T05:18:20.958Z,96032.06
2022-09-17T05:23:24.854Z,96025.19
2022-09-17T05:28:27.578Z,96024.78
2022-09-17T05:33:30.131Z,96038.09
2022-09-17T05:38:34.102Z,96043.31
2022-09-17T05:43:36.628Z,96041.50
2022-09-17T05:48:39.284Z,96049.94
2022-09-17T05:53:43.170Z,96042.25
2022-09-17T05:58:45.693Z,96042.63
2022-09-17T06:03:48.205Z,96047.09
2022-09-17T06:08:52.088Z,96047.78
2022-09-17T06:13:54.780Z,96050.09
2022-09-17T06:18:57.437Z,96052.81
2022-09-17T06:24:01.566Z,96057.75
2022-09-17T06:29:04.054Z,96058.97
2022-09-17T06:34:06.609Z,96056.66
2022-09-17T06:39:11.653Z,96051.25
2022-09-17T06:44:14.156Z,96065.38
2022-09-17T06:49:17.653Z,96054.56
2022-09-17T06:54:21.557Z,96067.69
2022-09-17T06:59:24.466Z,96079.81
2022-09-17T07:04:26.973Z,96078.47
2022-09-17T07:09:30.846Z,96070.56
2022-09-17T07:14:33.393Z,96068.50
2022-09-17T07:19:35.906Z,96070.41
2022-09-17T07:24:39.826Z,96082.28
2022-09-17T07:29:42.424Z,96087.41
2022-09-17T07:34:44.977Z,96084.97
2022-09-17T07:39:48.840Z,96078.38
2022-09-17T07:44:51.398Z,96095.56
2022-09-17T07:49:53.933Z,96101.81
2022-09-17T07:54:57.786Z,96108.09
2022-09-17T08:00:00.325Z,96094.72
2022-09-17T08:05:02.834Z,96098.53
2022-09-17T08:10:07.224Z,96100.31
2022-09-17T08:15:10.038Z,96099.16
2022-09-17T08:20:12.574Z,96095.75
2022-09-17T08:25:16.498Z,96104.03
2022-09-17T08:30:19.098Z,96101.75
2022-09-17T08:35:21.613Z,96110.25
2022-09-17T08:40:27.749Z,96122.19
2022-09-17T08:45:30.594Z,96126.81
2022-09-17T08:50:34.878Z,96129.06
2022-09-17T08:55:41.650Z,96144.31
2022-09-17T09:00:47.017Z,96145.84
2022-09-17T09:05:52.451Z,96151.06
2022-09-17T09:11:00.934Z,96149.47
2022-09-17T09:16:05.580Z,96155.22
2022-09-17T09:21:15.506Z,96163.09
2022-09-17T09:26:20.561Z,96154.09
2022-09-17T09:31:33.604Z,96164.91
2022-09-17T09:36:39.478Z,96157.88
2022-09-17T09:41:45.057Z,96167.25
2022-09-17T09:46:55.543Z,96163.28
2022-09-17T09:52:04.347Z,96166.88
2022-09-17T09:57:11.541Z,96168.53
2022-09-17T10:02:14.707Z,96169.03
2022-09-17T10:07:17.353Z,96172.28
2022-09-17T10:12:21.657Z,96178.34
2022-09-17T10:17:25.069Z,96192.06
2022-09-17T10:22:30.253Z,96186.78
2022-09-17T10:27:36.879Z,96198.63
2022-09-17T10:32:39.444Z,96193.88
2022-09-17T10:37:45.965Z,96190.94
2022-09-17T10:42:50.420Z,96199.66
2022-09-17T10:47:53.559Z,96198.66
2022-09-17T10:52:56.923Z,96187.13
2022-09-17T10:58:09.992Z,96183.69
2022-09-17T11:03:35.952Z,96178.75
2022-09-17T11:08:42.277Z,96185.22
2022-09-17T11:13:53.951Z,96167.84
2022-09-17T11:19:01.731Z,96184.34
2022-09-17T11:24:25.105Z,96180.78
2022-09-17T11:29:42.812Z,96181.38
2022-09-17T11:34:48.538Z,96174.09
2022-09-17T11:39:55.140Z,96180.94
2022-09-17T11:45:00.964Z,96179.94
2022-09-17T11:50:06.863Z,96175.84
2022-09-17T11:55:18.562Z,96175.22
2022-09-17T12:00:23.972Z,96180.44
2022-09-17T12:05:29.932Z,96170.25
2022-09-17T12:10:38.137Z,96169.53
2022-09-17T12:15:52.331Z,96152.94
2022-09-17T12:20:59.313Z,96153.38
2022-09-17T12:26:07.481Z,96156.72
2022-09-17T12:31:13.921Z,96143.97
2022-09-17T12:36:20.816Z,96150.94
2022-09-17T12:41:25.034Z,96140.34
2022-09-17T12:46:35.511Z,96135.91
2022-09-17T12:51:47.476Z,96122.09
2022-09-17T12:56:58.084Z,96125.59
2022-09-17T13:02:04.493Z,96127.75
2022-09-17T13:07:28.203Z,96127.88
2022-09-17T13:12:33.754Z,96136.06
2022-09-17T13:17:40.696Z,96132.56
2022-09-17T13:22:45.301Z,96133.84
2022-09-17T13:27:48.475Z,96135.16
2022-09-17T13:32:53.477Z,96133.19
2022-09-17T13:37:57.550Z,96134.09
2022-09-17T13:43:08.436Z,96137.81
2022-09-17T13:48:12.842Z,96136.41
2022-09-17T13:53:19.329Z,96138.88
2022-09-17T13:58:25.490Z,96140.78
2022-09-17T14:03:44.553Z,96149.91
2022-09-17T14:08:56.287Z,96141.47
2022-09-17T14:13:58.954Z,96141.31
2022-09-17T14:19:03.225Z,96146.84
2022-09-17T14:24:20.526Z,96157.41
2022-09-17T14:29:30.320Z,96148.53
2022-09-17T14:34:33.325Z,96144.94
2022-09-17T14:39:40.045Z,96144.41
2022-09-17T14:44:49.749Z,96140.41
2022-09-17T14:49:52.466Z,96141.84
2022-09-17T14:55:11.986Z,96133.56
2022-09-17T15:00:21.560Z,96137.78
2022-09-17T15:05:26.630Z,96145.59
2022-09-17T15:10:30.924Z,96154.84
2022-09-17T15:15:33.643Z,96159.13
2022-09-17T15:20:36.382Z,96172.25
2022-09-17T15:25:40.767Z,96171.59
2022-09-17T15:30:43.546Z,96165.16
2022-09-17T15:35:58.965Z,96173.25
2022-09-17T15:41:21.022Z,96162.91
2022-09-17T15:46:26.527Z,96168.94
2022-09-17T15:51:30.598Z,96171.50
2022-09-17T15:56:35.402Z,96183.66
2022-09-17T16:01:56.126Z,96176.81
2022-09-17T16:07:13.534Z,96176.44
2022-09-17T16:12:18.837Z,96178.13
2022-09-17T16:17:27.996Z,96183.13
2022-09-17T16:22:31.038Z,96185.84
2022-09-17T16:27:36.717Z,96171.53
2022-09-17T16:32:39.197Z,96185.44
2022-09-17T16:37:41.682Z,96182.09
2022-09-17T16:42:45.657Z,96187.53
2022-09-17T16:47:48.174Z,96185.25
2022-09-17T16:52:50.943Z,96190.38
2022-09-17T16:57:57.569Z,96184.44
2022-09-17T17:03:00.163Z,96195.00
2022-09-17T17:08:06.644Z,96200.06
2022-09-17T17:13:10.808Z,96195.69
2022-09-17T17:18:13.311Z,96213.94
2022-09-17T17:23:15.815Z,96218.28
2022-09-17T17:28:19.682Z,96216.84
2022-09-17T17:33:22.201Z,96235.56
2022-09-17T17:38:24.700Z,96222.22
2022-09-17T17:43:28.584Z,96223.53
2022-09-17T17:48:31.085Z,96239.00
2022-09-17T17:53:33.595Z,96241.25
2022-09-17T17:58:38.244Z,96244.72
2022-09-17T18:03:40.773Z,96252.16
2022-09-17T18:08:44.164Z,96258.25
2022-09-17T18:13:51.714Z,96254.31
2022-09-17T18:18:56.296Z,96264.63
2022-09-17T18:23:59.106Z,96256.84
2022-09-17T18:29:07.570Z,96268.56
2022-09-17T18:34:11.441Z,96273.72
2022-09-17T18:44:39.309Z,96287.28
2022-09-17T18:49:41.809Z,96277.94
2022-09-17T18:54:45.893Z,96278.81
2022-09-17T18:59:49.756Z,96287.16
2022-09-17T19:04:52.273Z,96294.63
2022-09-17T19:09:54.789Z,96297.72
2022-09-17T19:14:58.662Z,96307.63
2022-09-17T19:20:01.297Z,96312.91
2022-09-17T19:25:03.893Z,96311.56
2022-09-17T19:30:08.673Z,96317.88
2022-09-17T19:35:11.214Z,96315.66
2022-09-17T19:40:13.872Z,96330.22
2022-09-17T19:45:18.081Z,96333.25
2022-09-17T19:50:20.622Z,96322.81
2022-09-17T19:55:24.514Z,96325.81
2022-09-17T20:00:28.466Z,96336.75
2022-09-17T20:05:31.055Z,96344.16
2022-09-17T20:10:36.911Z,96342.84
2022-09-17T20:15:40.881Z,96347.03
2022-09-17T20:20:43.416Z,96346.44
2022-09-17T20:25:52.201Z,96352.19
2022-09-17T20:31:01.863Z,96349.72
2022-09-17T20:36:06.281Z,96350.25
2022-09-17T20:41:10.249Z,96356.78
2022-09-17T20:46:14.646Z,96362.44
2022-09-17T20:51:18.964Z,96358.84
2022-09-17T20:56:22.936Z,96358.16
2022-09-17T21:01:32.167Z,96359.84
2022-09-17T21:06:36.393Z,96358.84
2022-09-17T21:11:39.201Z,96370.28
2022-09-17T21:16:43.144Z,96374.69
2022-09-17T21:21:45.670Z,96377.56
2022-09-17T21:26:49.604Z,96372.31
2022-09-17T21:31:54.317Z,96374.78
2022-09-17T21:36:56.874Z,96371.16
2022-09-17T21:41:59.392Z,96379.56
2022-09-17T21:47:03.298Z,96380.75
2022-09-17T21:52:05.880Z,96379.91
2022-09-17T21:57:08.385Z,96380.03
2022-09-17T22:02:12.324Z,96384.75
2022-09-17T22:07:14.885Z,96387.81
2022-09-17T22:12:17.389Z,96376.97
2022-09-17T22:17:21.333Z,96386.66
2022-09-17T22:22:23.829Z,96376.63
2022-09-17T22:27:26.366Z,96377.31
2022-09-17T22:32:30.253Z,96376.63
2022-09-17T22:37:32.763Z,96372.25
2022-09-17T22:42:35.286Z,96357.38
2022-09-17T22:47:40.837Z,96363.41
2022-09-17T22:52:43.354Z,96368.47
2022-09-17T22:57:45.863Z,96367.03
2022-09-17T23:02:49.804Z,96363.84
2022-09-17T23:07:52.480Z,96372.09
2022-09-17T23:12:55.398Z,96365.84
2022-09-17T23:17:59.362Z,96368.44
2022-09-17T23:23:01.941Z,96362.28
2022-09-17T23:28:04.461Z,96357.84
2022-09-17T23:33:09.368Z,96350.13
2022-09-17T23:38:11.918Z,96355.66
2022-09-17T23:43:14.440Z,96350.66
2022-09-17T23:48:18.338Z,96350.41
2022-09-17T23:53:20.840Z,96348.00
2022-09-17T23:58:23.441Z,96353.41
